Maria S. Merian — DBBT — position and weather

sailwx.info

Track history (hours):
 
Tides and Currents Weather Stations Pressure Air Temp Water Temp Dewpoint Dewpoint Depression Visibility Wind Speed Wind Dir Waves Ship Positions

Oceanographic research ship Maria S. Merian (Germany)

Last reported at 2019-Feb-17 06:00 UTC. Time now 2019-Feb-17 07:28 UTC.
Position S 50°12' W 049°24'.

Length 94.8 m; beam 19.2 m; draft 6.5 m.

Type: Other ship. MMSI: 211753000.

Wind from 250 at 31 knots

Barometer 998.4 mb
Air temperature 8.8 ° C
Dewpoint 4.7 ° C
Water temperature 7.4 ° C

Date/timePositionNaut miles runAvg speedWind from/ knotsBaromVisibWave heightAir tempDewpointWater temp
2019-Feb-17 06:00S 50°12' W 049°24'7 7.1 250 / 31998.4 8.8 4.7 7.4
2019-Feb-17 05:00S 50°06' W 049°30'6 6.0 260 / 31998.0 9.0 4.7 7.2
2019-Feb-17 04:00S 50°00' W 049°30'7 7.1 260 / 29997.9 8.9 4.8 6.5
2019-Feb-17 03:00S 49°54' W 049°36'0 0.0 260 / 29997.3 9.0 5.4 6.9
2019-Feb-17 02:00S 49°54' W 049°36'7 7.1 260 / 27996.7 9.1 6.3 7.7
2019-Feb-17 01:00S 49°48' W 049°42'7 7.1 260 / 25996.7 9.3 6.8 8.1
2019-Feb-17 00:00S 49°42' W 049°48'4 3.9 250 / 23996.5 9.9 6.7 8.2
2019-Feb-16 23:00S 49°42' W 049°42'7 7.1 250 / 25995.0 9.8 6.7 7.9
2019-Feb-16 22:00S 49°48' W 049°36'4 3.9 250 / 27994.2 10.2 7.2 8.1
2019-Feb-16 21:00S 49°48' W 049°30'4 3.9 250 / 29992.7 10.6 7.4 8.3
2019-Feb-16 20:00S 49°48' W 049°24'10 9.8 260 / 29992.0 10.4 8.1 7.8
2019-Feb-16 19:00S 49°54' W 049°12'4 3.9 270 / 31990.9 10.3 8.3 7.5
2019-Feb-16 18:00S 49°54' W 049°06'4 3.9 270 / 33991.0 10.2 8.5 7.5
2019-Feb-16 17:00S 49°54' W 049°00'4 3.9 280 / 33990.4 10.7 8.6 7.5
2019-Feb-16 16:00S 49°54' W 048°54'7 7.1 280 / 35991.0 10.8 8.6 7.3
2019-Feb-16 15:00S 50°00' W 048°48'4 3.9 280 / 33991.7 11.2 8.6 6.9
2019-Feb-16 14:00S 50°00' W 048°42'4 3.9 300 / 31992.4 10.9 8.4 7.4
2019-Feb-16 13:00S 50°00' W 048°36'4 3.9 330 / 29994.3 10.5 8.3 7.4
2019-Feb-16 12:00S 50°00' W 048°30'6 6.0 320 / 23997.0 8.7 7.9 7.5
2019-Feb-16 11:00S 50°06' W 048°30'8 7.7 320 / 25998.5 8.5 7.0 7.7
2019-Feb-16 10:00S 50°06' W 048°18'4 3.8 310 / 171000.3 8.7 7.6 7.7
2019-Feb-16 09:00S 50°06' W 048°12'4 3.8 300 / 191000.8 8.2 7.2 7.5
2019-Feb-16 08:00S 50°06' W 048°06'7 7.1 280 / 211001.9 8.1 6.9 7.7
2019-Feb-16 07:00S 50°12' W 048°00'4 3.8 270 / 231003.0 8.0 5.9 7.3
2019-Feb-16 06:00S 50°12' W 047°54'4 3.8 270 / 251002.7 7.9 5.7 7.7
2019-Feb-16 05:00S 50°12' W 047°48'7 7.1 260 / 271002.5 7.6 5.4 7.3
2019-Feb-16 04:00S 50°18' W 047°42'8 7.7 240 / 271002.0 7.2 4.9 6.5
2019-Feb-16 03:00S 50°18' W 047°30'4 3.8 240 / 251001.8 6.9 4.8 6.5
2019-Feb-16 02:00S 50°18' W 047°24'4 3.8 240 / 251001.3 6.8 4.6 6.3
2019-Feb-16 01:00S 50°18' W 047°18'7 7.1 240 / 311000.1 7.0 4.3 6.3
2019-Feb-16 00:00S 50°24' W 047°12'0 0.0 230 / 33999.3 6.4 4.0 6.2
2019-Feb-15 23:00S 50°24' W 047°12'4 3.8 240 / 33998.5 6.9 3.6 6.3
2019-Feb-15 22:00S 50°24' W 047°06'4 3.8 230 / 37997.2 7.1 3.5 6.7
2019-Feb-15 21:00S 50°24' W 047°00'7 7.1 230 / 37996.0 7.1 3.7 6.4
2019-Feb-15 20:00S 50°30' W 046°54'4 3.8 240 / 37994.4 7.4 3.8 6.8
2019-Feb-15 19:00S 50°30' W 046°48'4 3.8 230 / 33994.1 6.5 3.8 6.6
2019-Feb-15 18:00S 50°30' W 046°42'4 3.8 250 / 35993.2 7.4 4.2 6.6
2019-Feb-15 17:00S 50°30' W 046°36'10 9.7 230 / 35992.6 7.0 3.6 6.2
2019-Feb-15 16:00S 50°36' W 046°24'4 3.8 240 / 37991.7 6.6 3.4 6.3
2019-Feb-15 15:00S 50°36' W 046°18'4 3.8 240 / 31990.6 7.2 4.2 6.4
2019-Feb-15 14:00S 50°36' W 046°12'4 3.8 230 / 33989.4 7.2 4.4 6.3
2019-Feb-15 13:00S 50°36' W 046°06'6 6.0 240 / 33988.6 7.5 4.5 6.8
2019-Feb-15 12:00S 50°42' W 046°06'4 3.8 230 / 29987.9 6.6 5.2 6.5
2019-Feb-15 11:00S 50°42' W 046°12'4 3.8 220 / 39987.0 6.1 4.9 6.1
2019-Feb-15 10:00S 50°42' W 046°18'10 9.7 250 / 31985.5 7.6 7.0 6.2
2019-Feb-15 09:00S 50°48' W 046°30'4 3.8 250 / 27984.7 7.3 6.3 6.2
2019-Feb-15 08:00S 50°48' W 046°36'4 3.8 260 / 27983.7 7.2 6.1 6.4
2019-Feb-15 07:00S 50°48' W 046°42'7 7.1 260 / 31983.8 7.5 6.4 6.2
2019-Feb-15 06:00S 50°54' W 046°48'4 3.8 270 / 31983.7 8.1 7.1 6.3
2019-Feb-15 05:00S 50°54' W 046°54'6 6.0 270 / 27984.1 8.0 7.2 6.4
2019-Feb-15 04:00S 51°00' W 046°54'4 3.8 290 / 25985.0 7.8 7.8 6.3
2019-Feb-15 03:00S 51°00' W 047°00'7 7.1 290 / 25985.9 7.8 7.7 6.3
2019-Feb-15 02:00S 51°06' W 047°06'4 3.8 280 / 25986.7 8.0 7.5 6.8
2019-Feb-15 01:00S 51°06' W 047°12'4 3.8 290 / 25987.8 7.8 7.3 7.3
2019-Feb-15 00:00S 51°06' W 047°18'7 7.1 300 / 21989.1 7.3 6.8 6.6
2019-Feb-14 23:00S 51°12' W 047°24'4 3.8 300 / 23989.9 7.2 6.7 5.8
2019-Feb-14 22:00S 51°12' W 047°30'7 7.1 290 / 23990.7 7.4 6.6 5.7
2019-Feb-14 21:00S 51°18' W 047°36'4 3.8 280 / 21991.6 7.7 6.9 6.3
2019-Feb-14 20:00S 51°18' W 047°42'7 7.1 280 / 23992.1 7.8 6.7 6.3
2019-Feb-14 19:00S 51°24' W 047°48'4 3.7 290 / 23992.4 8.0 6.7 6.8
2019-Feb-14 18:00S 51°24' W 047°54'4 3.7 280 / 27992.6 8.3 6.6 7.0
2019-Feb-14 17:00S 51°24' W 048°00'7 7.1 280 / 27993.2 8.4 6.5 7.0
2019-Feb-14 16:00S 51°30' W 048°06'7 7.5 290 / 31993.2 8.3 6.2 6.6
2019-Feb-14 15:00S 51°30' W 048°18'7 7.1 290 / 33993.4 8.6 6.2 6.6
2019-Feb-14 14:00S 51°36' W 048°24'4 3.7 300 / 35993.4 8.6 6.4 6.7
2019-Feb-14 13:00S 51°36' W 048°30'7 7.1 300 / 35994.1 8.3 6.4 6.7
2019-Feb-14 12:00S 51°42' W 048°36'4 3.7 300 / 37995.1 8.3 6.5 6.6
2019-Feb-14 11:00S 51°42' W 048°42'7 7.1 300 / 35995.7 8.1 6.8 6.8
2019-Feb-14 10:00S 51°48' W 048°48'4 3.7 300 / 35996.2 8.0 6.8 6.8
2019-Feb-14 09:00S 51°48' W 048°54'4 3.7 300 / 33997.8 8.0 6.6 7.4
2019-Feb-14 08:00S 51°48' W 049°00'7 7.1 300 / 33998.6 7.9 6.2 7.6
2019-Feb-14 07:00S 51°54' W 049°06'4 3.7 300 / 31999.7 7.7 6.1 7.4
2019-Feb-14 06:00S 51°54' W 049°12'7 7.0 300 / 291000.2 7.5 5.5 7.4
2019-Feb-14 05:00S 52°00' W 049°18'4 3.7 290 / 231001.4 7.1 5.0 6.6
2019-Feb-14 04:00S 52°00' W 049°24'4 3.7 280 / 231002.0 6.9 5.1 6.6
2019-Feb-14 03:00S 52°00' W 049°30'7 7.0 270 / 231002.5 6.8 4.7 6.8
2019-Feb-14 02:00S 52°06' W 049°36'4 3.7 260 / 231002.9 6.8 4.7 6.6
2019-Feb-14 01:00S 52°06' W 049°42'7 7.0 260 / 231002.5 6.8 4.7 6.8
2019-Feb-14 00:00S 52°12' W 049°48'4 3.7 250 / 211002.9 8.0 4.9 6.7
2019-Feb-13 23:00S 52°12' W 049°54'0 0.0 250 / 251002.8 7.4 3.9 6.6
2019-Feb-13 22:00S 52°12' W 049°54'7 7.0 250 / 291002.5 8.8 5.2 6.5
2019-Feb-13 21:00S 52°18' W 050°00'4 3.7 250 / 271002.2 7.6 3.0 6.5
2019-Feb-13 20:00S 52°18' W 050°06'4 3.7 240 / 311001.5 7.8 3.6 6.8
2019-Feb-13 19:00S 52°18' W 050°12'7 7.0 230 / 311000.7 6.3 2.9 6.7
2019-Feb-13 18:00S 52°24' W 050°18'4 3.7 230 / 371000.0 6.0 0.8 6.8
2019-Feb-13 17:00S 52°24' W 050°24'7 7.0 220 / 35999.6 5.9 1.6 6.9
2019-Feb-13 16:00S 52°30' W 050°30'4 3.7 220 / 37999.1 5.5 1.5 6.8
2019-Feb-13 15:00S 52°30' W 050°36'4 3.7 220 / 35998.3 5.6 1.0 6.7
2019-Feb-13 14:00S 52°30' W 050°42'7 7.0 220 / 39997.4 5.1 0.4 6.7
2019-Feb-13 13:00S 52°36' W 050°48'0 0.0 230 / 37996.4 5.3 2.5 6.8
2019-Feb-13 12:00S 52°36' W 050°48'4 3.6 230 / 39996.0 5.6 2.2 6.8
2019-Feb-13 11:00S 52°36' W 050°54'9 9.4 220 / 39995.1 5.3 1.8 7.0
2019-Feb-13 10:00S 52°42' W 051°06'7 7.3 220 / 39994.3 5.0 2.1 5.8
2019-Feb-13 09:00S 52°42' W 051°18'6 6.0 220 / 41993.1 4.9 1.9 4.7
2019-Feb-13 08:00S 52°36' W 051°18'4 3.6 220 / 47991.2 5.7 1.7 5.7
2019-Feb-13 07:00S 52°36' W 051°12'4 3.6 250 / 39989.7 6.9 4.7 6.2
2019-Feb-13 06:00S 52°36' W 051°06'7 7.3 250 / 33989.2 7.7 5.7 7.1
2019-Feb-13 05:00S 52°36' W 050°54'7 7.0 270 / 33989.4 8.2 6.2 7.1
2019-Feb-13 04:00S 52°30' W 050°48'4 3.7 270 / 31989.7 8.0 6.7 7.0
2019-Feb-13 03:00S 52°30' W 050°42'0 0.0 270 / 33990.7 7.8 6.8 6.8
2019-Feb-13 02:00S 52°30' W 050°42'0 0.0 280 / 37991.4 7.6 6.9 6.9
2019-Feb-13 01:00S 52°30' W 050°42'1514.6 280 / 31992.8 7.5 6.2 7.1
2019-Feb-13 00:00S 52°30' W 051°06'1312.5 300 / 33994.6 7.9 6.8 6.8
2019-Feb-12 23:00S 52°24' W 051°24'1111.0 300 / 27996.7 7.5 6.7 7.2
2019-Feb-12 22:00S 52°24' W 051°42'1312.5 300 / 25998.7 7.4 6.5 6.7
2019-Feb-12 21:00S 52°18' W 052°00'1111.0 300 / 251000.0 7.6 6.4 6.8
2019-Feb-12 20:00S 52°18' W 052°18'1312.5 300 / 211001.8 7.8 6.3 6.9
2019-Feb-12 19:00S 52°12' W 052°36'1111.0 290 / 211003.1 8.2 6.4 7.1
2019-Feb-12 18:00S 52°12' W 052°54'1111.0 290 / 231004.6 8.2 6.2 7.2
2019-Feb-12 17:00S 52°12' W 053°12'1615.9 280 / 211005.8 9.0 6.9 8.9
2019-Feb-12 16:00S 52°06' W 053°36'1111.1 270 / 191006.8 8.3 6.7 8.3
2019-Feb-12 15:00S 52°06' W 053°54'1111.1 260 / 191007.6 8.1 6.3 7.7
2019-Feb-12 14:00S 52°06' W 054°12'1111.1 260 / 211008.9 7.9 6.0 6.7
2019-Feb-12 13:00S 52°06' W 054°30'1312.6 260 / 191009.6 7.8 5.9 6.9
2019-Feb-12 12:00S 52°00' W 054°48'1111.1 240 / 211010.5 7.7 6.0 6.9
2019-Feb-12 11:00S 52°00' W 055°06'1514.8 230 / 251011.7 7.5 6.4 8.1
2019-Feb-12 10:00S 52°00' W 055°30'1312.6 240 / 271012.3 7.8 6.0 7.8
2019-Feb-12 09:00S 51°54' W 055°48'1111.1 240 / 251012.6 7.9 6.5 8.0
2019-Feb-12 08:00S 51°54' W 056°06'1312.6 240 / 231012.8 7.8 6.2 8.2
2019-Feb-12 07:00S 51°48' W 056°24'1111.1 240 / 211013.3 7.9 6.0 8.0
2019-Feb-12 06:00S 51°48' W 056°42'1312.7 220 / 231013.6 8.0 5.8 8.0
2019-Feb-12 05:00S 51°42' W 057°00'1111.2 220 / 251013.8 8.1 5.8 8.2
2019-Feb-12 04:00S 51°42' W 057°18'1111.2 220 / 291013.9 8.3 5.9 8.9
2019-Feb-12 03:00S 51°42' W 057°36'7 7.4 210 / 331014.1 8.1 6.110.4
2019-Feb-12 02:00S 51°42' W 057°48'7 7.4 220 / 251014.2 8.3 5.311.0
2019-Feb-12 01:00S 51°42' W 057°36'10 9.5 210 / 311013.3 8.2 4.910.0
2019-Feb-12 00:00S 51°48' W 057°24'1312.6 220 / 351012.7 7.8 4.2 8.8
2019-Feb-11 23:00S 51°54' W 057°06'1312.6 220 / 331011.4 7.8 4.1 8.5
2019-Feb-11 22:00S 52°00' W 056°48'10 9.5 220 / 311011.0 6.9 2.6 7.9
2019-Feb-11 21:00S 52°06' W 056°36'1616.3 220 / 331010.0 6.9 1.9 8.2
2019-Feb-11 20:00S 52°18' W 056°18'9 9.5 210 / 311009.5 6.7 0.5 7.7
2019-Feb-11 19:00S 52°24' W 056°06'1312.5 220 / 331008.7 6.7 1.0 7.7
2019-Feb-11 18:00S 52°30' W 055°48'9 9.4 220 / 231008.4 5.7 1.7 7.8
2019-Feb-11 17:00S 52°36' W 055°36'1212.5 210 / 331007.7 4.4 1.0 8.0
2019-Feb-11 16:00S 52°42' W 055°18'7 7.0 210 / 271007.5 5.1-0.4 7.2
2019-Feb-11 15:00S 52°48' W 055°12'1110.9 210 / 311006.4 4.5 1.7 7.9
2019-Feb-11 14:00S 52°48' W 055°30'1615.7 200 / 231006.4 4.9 0.2 6.8
2019-Feb-11 13:00S 52°54' W 055°54'1110.9 200 / 291006.0 5.9-1.3 7.6
2019-Feb-11 12:00S 52°54' W 056°12'1110.9 200 / 291006.0 5.8-2.2 8.4
2019-Feb-11 11:00S 52°54' W 056°30'1110.9 200 / 311006.4 5.9 1.0 8.2
2019-Feb-11 10:00S 52°54' W 056°48'1615.7 190 / 351006.0 4.1 1.9 7.8
2019-Feb-11 09:00S 53°00' W 057°12'1110.8 200 / 291005.3 5.8-0.0 8.2
2019-Feb-11 08:00S 53°00' W 057°30'1110.8 200 / 311004.7 5.6-0.2 8.3
2019-Feb-11 07:00S 53°00' W 057°48'1414.4 210 / 311004.7 4.8 1.6 9.1
2019-Feb-11 06:00S 53°00' W 058°12'1212.4 200 / 291004.3 5.5 1.4 8.4
2019-Feb-11 05:00S 53°06' W 058°30'1414.4 200 / 311004.2 5.5 1.2 8.0
2019-Feb-11 04:00S 53°06' W 058°54'1110.8 210 / 311003.4 5.2 1.8 8.3
2019-Feb-11 03:00S 53°06' W 059°12'1110.8 200 / 291003.2 3.4 1.4 8.4
2019-Feb-11 02:00S 53°06' W 059°30'1110.8 210 / 251002.6 5.6 1.1 8.8
2019-Feb-11 01:00S 53°06' W 059°48'1414.4 200 / 251001.9 5.2-0.1 9.1
2019-Feb-11 00:00S 53°06' W 060°12'1212.4 200 / 271001.5 5.9 0.3 8.9
2019-Feb-10 23:00S 53°00' W 060°30'1110.8 200 / 251001.1 6.0 0.6 8.9
2019-Feb-10 22:00S 53°00' W 060°48'1414.4 200 / 251000.3 5.6 0.5 8.6
2019-Feb-10 21:00S 53°00' W 061°12'1212.4 190 / 27999.9 6.5-0.6 8.6
2019-Feb-10 20:00S 52°54' W 061°30'1110.9 190 / 25999.2 6.3-0.0 8.6
2019-Feb-10 19:00S 52°54' W 061°48'1414.5 180 / 25998.3 6.3 1.9 8.6
2019-Feb-10 18:00S 52°54' W 062°12'1110.9 170 / 25997.6 5.7 1.4 8.7
2019-Feb-10 17:00S 52°54' W 062°30'1110.9 180 / 29996.4 6.0 1.7 8.9
2019-Feb-10 16:00S 52°54' W 062°48'1212.4 180 / 23995.7 6.4 1.3 8.0
2019-Feb-10 15:00S 52°48' W 063°06'1110.9 190 / 27995.3 5.6 2.3 8.4
2019-Feb-10 14:00S 52°48' W 063°24'1110.9 170 / 21994.7 4.6 1.9 8.7
2019-Feb-10 13:00S 52°48' W 063°42'1110.9 180 / 31993.5 4.5 1.9 8.7
2019-Feb-10 12:00S 52°48' W 064°00'1110.9 200 / 33993.0 5.6 1.4 8.7
2019-Feb-10 11:00S 52°48' W 064°18'1212.4 200 / 33992.9 6.1-0.5 8.9
2019-Feb-10 10:00S 52°42' W 064°36'1110.9 190 / 31992.2 7.0 3.3 9.1
2019-Feb-10 09:00S 52°42' W 064°54'1110.9 180 / 33991.1 6.9 4.0 9.5
2019-Feb-10 08:00S 52°42' W 065°12'1514.5 220 / 27989.8 9.0 5.6 9.5
2019-Feb-10 07:00S 52°42' W 065°36'1110.9 230 / 25990.3 8.9 5.3 9.9
2019-Feb-10 06:00S 52°42' W 065°54'1212.5 240 / 27989.1 8.8 5.310.1
2019-Feb-10 05:00S 52°36' W 066°12'1110.9 240 / 27990.3 9.1 5.2 9.9
2019-Feb-10 04:00S 52°36' W 066°30'1110.9 240 / 29989.5 8.9 5.1 9.9
2019-Feb-10 03:00S 52°36' W 066°48'1110.9 240 / 29989.8 8.9 5.2 9.9
2019-Feb-10 02:00S 52°36' W 067°06'1110.9 250 / 31989.8 9.2 4.7 9.8
2019-Feb-10 01:00S 52°36' W 067°24'1212.5 250 / 27989.5 9.4 5.2 9.1
2019-Feb-10 00:00S 52°30' W 067°42'1514.6 250 / 31989.5 10.0 5.1 9.8
2019-Feb-09 23:00S 52°30' W 068°06'1111.0 260 / 33989.4 9.7 4.7 9.3
2019-Feb-09 22:00S 52°30' W 068°24'1615.8 250 / 33990.2 9.6 4.8 9.5
2019-Feb-09 21:00S 52°24' W 068°48'1111.0 250 / 33990.4 10.0 4.6 9.9
2019-Feb-09 20:00S 52°24' W 069°06'1111.0 240 / 31990.7 10.6 4.410.7
2019-Feb-09 19:00S 52°24' W 069°24'9 9.5 250 / 25990.5 9.9 4.510.9
2019-Feb-09 18:00S 52°30' W 069°36'9 9.4 250 / 31990.3 10.2 4.010.8
2019-Feb-09 17:00S 52°36' W 069°48'1212.5 260 / 31990.2 9.7 3.710.6
2019-Feb-09 16:00S 52°42' W 070°06'1110.9 270 / 29990.7 9.0 3.4 9.6
2019-Feb-09 15:00S 52°42' W 070°24'1818.4 270 / 31991.5 8.8 3.3 9.2
2019-Feb-09 14:00S 53°00' W 070°30'1212.4 270 / 31985.6 8.3 4.0 9.0
2019-Feb-09 13:00S 53°06' W 070°48'7 7.0 290 / 19990.7 8.7 2.9 9.0
2019-Feb-09 12:00S 53°12' W 070°54'0 0.0 270 / 23989.7 7.9 2.710.2
2019-Feb-09 11:00S 53°12' W 070°54'0 0.0 270 / 14990.1 7.4 3.110.5
2019-Feb-09 10:00S 53°12' W 070°54'0 0.0 280 / 16989.9 7.0 3.110.4
2019-Feb-09 09:00S 53°12' W 070°54'0 0.0 270 / 19989.5 7.4 3.210.4
2019-Feb-09 08:00S 53°12' W 070°54'0 0.0 260 / 19989.4 7.6 3.210.6
2019-Feb-09 07:00S 53°12' W 070°54'0 0.0 270 / 16989.6 7.7 3.210.4
2019-Feb-09 06:00S 53°12' W 070°54'0 0.0 270 / 12990.2 7.6 3.210.3
2019-Feb-09 05:00S 53°12' W 070°54'0 0.0 300 / 8990.4 7.4 3.610.3
2019-Feb-09 04:00S 53°12' W 070°54'0 0.0 290 / 12990.2 7.8 3.710.3
2019-Feb-09 03:00S 53°12' W 070°54'0 0.0 270 / 16990.1 7.6 3.610.5
2019-Feb-09 02:00S 53°12' W 070°54'0 0.0 270 / 14990.1 8.2 4.010.4
2019-Feb-09 01:00S 53°12' W 070°54'0 0.0 270 / 16989.6 8.6 3.910.4
2019-Feb-09 00:00S 53°12' W 070°54'0 0.0 280 / 21989.1 8.8 4.210.5
2019-Feb-08 23:00S 53°12' W 070°54'0 0.0 280 / 17989.5 9.3 4.710.4
2019-Feb-08 22:00S 53°12' W 070°54'0 0.0 290 / 25988.6 8.7 4.510.3
2019-Feb-08 21:00S 53°12' W 070°54'0 0.0 260 / 14989.6 10.1 5.510.0
2019-Feb-08 20:00S 53°12' W 070°54'0 0.0 300 / 17989.3 11.9 4.1 9.3
2019-Feb-08 19:00S 53°12' W 070°54'1212.0 310 / 21989.4 10.7 4.0 9.2
2019-Feb-08 18:00S 53°24' W 070°54'1212.0 320 / 17990.5 10.0 4.2 9.7
2019-Feb-08 17:00S 53°36' W 070°54'1212.0 320 / 14991.0 10.8 3.3 9.7
2019-Feb-08 16:00S 53°48' W 070°54'9 9.3 160 / 6991.6 9.0 5.5 9.9
2019-Feb-08 15:00S 53°54' W 071°06'1110.6 250 / 8992.3 9.3 4.1 9.1
2019-Feb-08 14:00S 53°54' W 071°24'1212.2 280 / 25993.5 8.2 4.5 8.8
2019-Feb-08 13:00S 53°48' W 071°42'1212.2 280 / 21993.9 8.3 4.9 8.6
2019-Feb-08 12:00S 53°42' W 072°00'1212.2 290 / 17995.1 7.8 5.0 8.6
2019-Feb-08 11:00S 53°36' W 072°18'1212.3 290 / 21995.5 8.3 4.5 8.8
2019-Feb-08 10:00S 53°30' W 072°36'1212.3 270 / 17996.0 8.4 4.5 9.6
2019-Feb-08 09:00S 53°24' W 072°54'1212.3 300 / 17996.8 7.7 5.8 9.4
2019-Feb-08 08:00S 53°18' W 073°12'1616.1 260 / 21997.7 7.4 4.4 9.6
2019-Feb-08 07:00S 53°06' W 073°30'1212.4 310 / 23998.4 9.1 5.6 9.7
2019-Feb-08 06:00S 53°00' W 073°48'1212.0 310 / 21998.9 9.5 5.910.2
2019-Feb-08 05:00S 52°48' W 073°48'1312.5 280 / 29999.4 7.5 5.810.4
2019-Feb-08 04:00S 52°36' W 073°42'1212.0 330 / 16999.4 9.0 6.410.5
2019-Feb-08 03:00S 52°24' W 073°42'1312.5 350 / 19999.9 8.8 6.010.5
2019-Feb-08 02:00S 52°12' W 073°36'1312.6 340 / 271000.4 9.1 7.510.4
2019-Feb-08 01:00S 52°00' W 073°42'1212.0 340 / 161002.1 9.7 5.910.4
2019-Feb-08 00:00S 51°48' W 073°42'1312.7 330 / 271003.9 9.5 6.310.2
2019-Feb-07 23:00S 51°42' W 074°00'1212.0 330 / 231005.2 8.8 6.910.4
2019-Feb-07 22:00S 51°30' W 074°00'1818.4 340 / 271007.1 9.3 6.610.5
2019-Feb-07 21:00S 51°12' W 074°06'2713.3 350 / 271008.1 9.5 6.910.4
2019-Feb-07 19:00S 50°48' W 074°24'1312.9 330 / 251009.9 10.5 6.710.7
2019-Feb-07 18:00S 50°42' W 074°42'1312.6 350 / 211011.5 10.3 8.110.7
2019-Feb-07 17:00S 50°30' W 074°48'1818.0 010 / 171012.1 10.6 8.611.1
2019-Feb-07 16:00S 50°12' W 074°48'7 7.1 350 / 171013.5 9.7 6.911.2
2019-Feb-07 15:00S 50°06' W 074°54'1313.0 350 / 191014.0 11.4 6.811.8
2019-Feb-07 14:00S 50°00' W 075°12'1313.0 330 / 191014.3 10.8 6.511.5
2019-Feb-07 13:00S 49°54' W 075°30'1211.6 320 / 251014.6 11.1 7.012.3
2019-Feb-07 12:00S 49°54' W 075°48'1414.3 330 / 211015.2 10.4 6.111.8
2019-Feb-07 11:00S 49°42' W 076°00'1312.6 320 / 171015.9 10.0 5.910.8
2019-Feb-07 10:00S 49°30' W 076°06'1212.0 310 / 171015.8 10.0 6.010.6
2019-Feb-07 09:00S 49°18' W 076°06'1212.0 300 / 171016.4 10.1 6.011.2
2019-Feb-07 08:00S 49°06' W 076°06'1212.0 280 / 191017.3 10.3 5.212.0
2019-Feb-07 07:00S 48°54' W 076°06'1312.6 280 / 191017.4 10.6 6.112.2
2019-Feb-07 06:00S 48°42' W 076°12'   290 / 171017.8 11.1 7.612.8
Track history (hours):
 
Tides and Currents Weather Stations Pressure Air Temp Water Temp Dewpoint Dewpoint Depression Visibility Wind Speed Wind Dir Waves Ship Positions

Oceanographic research ship Maria S. Merian (Germany)

Last reported at 2019-Feb-17 06:00 UTC. Time now 2019-Feb-17 07:28 UTC.
Position S 50°12' W 049°24'.

Length 94.8 m; beam 19.2 m; draft 6.5 m.

Type: Other ship. MMSI: 211753000.

Wind from 250 at 31 knots

Barometer 998.4 mb
Air temperature 8.8 ° C
Dewpoint 4.7 ° C
Water temperature 7.4 ° C

Date/timePositionNaut miles runAvg speedWind from/ knotsBaromVisibWave heightAir tempDewpointWater temp
2019-Feb-17 06:00S 50°12' W 049°24'7 7.1 250 / 31998.4 8.8 4.7 7.4
2019-Feb-17 05:00S 50°06' W 049°30'6 6.0 260 / 31998.0 9.0 4.7 7.2
2019-Feb-17 04:00S 50°00' W 049°30'7 7.1 260 / 29997.9 8.9 4.8 6.5
2019-Feb-17 03:00S 49°54' W 049°36'0 0.0 260 / 29997.3 9.0 5.4 6.9
2019-Feb-17 02:00S 49°54' W 049°36'7 7.1 260 / 27996.7 9.1 6.3 7.7
2019-Feb-17 01:00S 49°48' W 049°42'7 7.1 260 / 25996.7 9.3 6.8 8.1
2019-Feb-17 00:00S 49°42' W 049°48'4 3.9 250 / 23996.5 9.9 6.7 8.2
2019-Feb-16 23:00S 49°42' W 049°42'7 7.1 250 / 25995.0 9.8 6.7 7.9
2019-Feb-16 22:00S 49°48' W 049°36'4 3.9 250 / 27994.2 10.2 7.2 8.1
2019-Feb-16 21:00S 49°48' W 049°30'4 3.9 250 / 29992.7 10.6 7.4 8.3
2019-Feb-16 20:00S 49°48' W 049°24'10 9.8 260 / 29992.0 10.4 8.1 7.8
2019-Feb-16 19:00S 49°54' W 049°12'4 3.9 270 / 31990.9 10.3 8.3 7.5
2019-Feb-16 18:00S 49°54' W 049°06'4 3.9 270 / 33991.0 10.2 8.5 7.5
2019-Feb-16 17:00S 49°54' W 049°00'4 3.9 280 / 33990.4 10.7 8.6 7.5
2019-Feb-16 16:00S 49°54' W 048°54'7 7.1 280 / 35991.0 10.8 8.6 7.3
2019-Feb-16 15:00S 50°00' W 048°48'4 3.9 280 / 33991.7 11.2 8.6 6.9
2019-Feb-16 14:00S 50°00' W 048°42'4 3.9 300 / 31992.4 10.9 8.4 7.4
2019-Feb-16 13:00S 50°00' W 048°36'4 3.9 330 / 29994.3 10.5 8.3 7.4
2019-Feb-16 12:00S 50°00' W 048°30'6 6.0 320 / 23997.0 8.7 7.9 7.5
2019-Feb-16 11:00S 50°06' W 048°30'8 7.7 320 / 25998.5 8.5 7.0 7.7
2019-Feb-16 10:00S 50°06' W 048°18'4 3.8 310 / 171000.3 8.7 7.6 7.7
2019-Feb-16 09:00S 50°06' W 048°12'4 3.8 300 / 191000.8 8.2 7.2 7.5
2019-Feb-16 08:00S 50°06' W 048°06'7 7.1 280 / 211001.9 8.1 6.9 7.7
2019-Feb-16 07:00S 50°12' W 048°00'4 3.8 270 / 231003.0 8.0 5.9 7.3
2019-Feb-16 06:00S 50°12' W 047°54'4 3.8 270 / 251002.7 7.9 5.7 7.7
2019-Feb-16 05:00S 50°12' W 047°48'7 7.1 260 / 271002.5 7.6 5.4 7.3
2019-Feb-16 04:00S 50°18' W 047°42'8 7.7 240 / 271002.0 7.2 4.9 6.5
2019-Feb-16 03:00S 50°18' W 047°30'4 3.8 240 / 251001.8 6.9 4.8 6.5
2019-Feb-16 02:00S 50°18' W 047°24'4 3.8 240 / 251001.3 6.8 4.6 6.3
2019-Feb-16 01:00S 50°18' W 047°18'7 7.1 240 / 311000.1 7.0 4.3 6.3
2019-Feb-16 00:00S 50°24' W 047°12'0 0.0 230 / 33999.3 6.4 4.0 6.2
2019-Feb-15 23:00S 50°24' W 047°12'4 3.8 240 / 33998.5 6.9 3.6 6.3
2019-Feb-15 22:00S 50°24' W 047°06'4 3.8 230 / 37997.2 7.1 3.5 6.7
2019-Feb-15 21:00S 50°24' W 047°00'7 7.1 230 / 37996.0 7.1 3.7 6.4
2019-Feb-15 20:00S 50°30' W 046°54'4 3.8 240 / 37994.4 7.4 3.8 6.8
2019-Feb-15 19:00S 50°30' W 046°48'4 3.8 230 / 33994.1 6.5 3.8 6.6
2019-Feb-15 18:00S 50°30' W 046°42'4 3.8 250 / 35993.2 7.4 4.2 6.6
2019-Feb-15 17:00S 50°30' W 046°36'10 9.7 230 / 35992.6 7.0 3.6 6.2
2019-Feb-15 16:00S 50°36' W 046°24'4 3.8 240 / 37991.7 6.6 3.4 6.3
2019-Feb-15 15:00S 50°36' W 046°18'4 3.8 240 / 31990.6 7.2 4.2 6.4
2019-Feb-15 14:00S 50°36' W 046°12'4 3.8 230 / 33989.4 7.2 4.4 6.3
2019-Feb-15 13:00S 50°36' W 046°06'6 6.0 240 / 33988.6 7.5 4.5 6.8
2019-Feb-15 12:00S 50°42' W 046°06'4 3.8 230 / 29987.9 6.6 5.2 6.5
2019-Feb-15 11:00S 50°42' W 046°12'4 3.8 220 / 39987.0 6.1 4.9 6.1
2019-Feb-15 10:00S 50°42' W 046°18'10 9.7 250 / 31985.5 7.6 7.0 6.2
2019-Feb-15 09:00S 50°48' W 046°30'4 3.8 250 / 27984.7 7.3 6.3 6.2
2019-Feb-15 08:00S 50°48' W 046°36'4 3.8 260 / 27983.7 7.2 6.1 6.4
2019-Feb-15 07:00S 50°48' W 046°42'7 7.1 260 / 31983.8 7.5 6.4 6.2
2019-Feb-15 06:00S 50°54' W 046°48'4 3.8 270 / 31983.7 8.1 7.1 6.3
2019-Feb-15 05:00S 50°54' W 046°54'6 6.0 270 / 27984.1 8.0 7.2 6.4
2019-Feb-15 04:00S 51°00' W 046°54'4 3.8 290 / 25985.0 7.8 7.8 6.3
2019-Feb-15 03:00S 51°00' W 047°00'7 7.1 290 / 25985.9 7.8 7.7 6.3
2019-Feb-15 02:00S 51°06' W 047°06'4 3.8 280 / 25986.7 8.0 7.5 6.8
2019-Feb-15 01:00S 51°06' W 047°12'4 3.8 290 / 25987.8 7.8 7.3 7.3
2019-Feb-15 00:00S 51°06' W 047°18'7 7.1 300 / 21989.1 7.3 6.8 6.6
2019-Feb-14 23:00S 51°12' W 047°24'4 3.8 300 / 23989.9 7.2 6.7 5.8
2019-Feb-14 22:00S 51°12' W 047°30'7 7.1 290 / 23990.7 7.4 6.6 5.7
2019-Feb-14 21:00S 51°18' W 047°36'4 3.8 280 / 21991.6 7.7 6.9 6.3
2019-Feb-14 20:00S 51°18' W 047°42'7 7.1 280 / 23992.1 7.8 6.7 6.3
2019-Feb-14 19:00S 51°24' W 047°48'4 3.7 290 / 23992.4 8.0 6.7 6.8
2019-Feb-14 18:00S 51°24' W 047°54'4 3.7 280 / 27992.6 8.3 6.6 7.0
2019-Feb-14 17:00S 51°24' W 048°00'7 7.1 280 / 27993.2 8.4 6.5 7.0
2019-Feb-14 16:00S 51°30' W 048°06'7 7.5 290 / 31993.2 8.3 6.2 6.6
2019-Feb-14 15:00S 51°30' W 048°18'7 7.1 290 / 33993.4 8.6 6.2 6.6
2019-Feb-14 14:00S 51°36' W 048°24'4 3.7 300 / 35993.4 8.6 6.4 6.7
2019-Feb-14 13:00S 51°36' W 048°30'7 7.1 300 / 35994.1 8.3 6.4 6.7
2019-Feb-14 12:00S 51°42' W 048°36'4 3.7 300 / 37995.1 8.3 6.5 6.6
2019-Feb-14 11:00S 51°42' W 048°42'7 7.1 300 / 35995.7 8.1 6.8 6.8
2019-Feb-14 10:00S 51°48' W 048°48'4 3.7 300 / 35996.2 8.0 6.8 6.8
2019-Feb-14 09:00S 51°48' W 048°54'4 3.7 300 / 33997.8 8.0 6.6 7.4
2019-Feb-14 08:00S 51°48' W 049°00'7 7.1 300 / 33998.6 7.9 6.2 7.6
2019-Feb-14 07:00S 51°54' W 049°06'4 3.7 300 / 31999.7 7.7 6.1 7.4
2019-Feb-14 06:00S 51°54' W 049°12'7 7.0 300 / 291000.2 7.5 5.5 7.4
2019-Feb-14 05:00S 52°00' W 049°18'4 3.7 290 / 231001.4 7.1 5.0 6.6
2019-Feb-14 04:00S 52°00' W 049°24'4 3.7 280 / 231002.0 6.9 5.1 6.6
2019-Feb-14 03:00S 52°00' W 049°30'7 7.0 270 / 231002.5 6.8 4.7 6.8
2019-Feb-14 02:00S 52°06' W 049°36'4 3.7 260 / 231002.9 6.8 4.7 6.6
2019-Feb-14 01:00S 52°06' W 049°42'7 7.0 260 / 231002.5 6.8 4.7 6.8
2019-Feb-14 00:00S 52°12' W 049°48'4 3.7 250 / 211002.9 8.0 4.9 6.7
2019-Feb-13 23:00S 52°12' W 049°54'0 0.0 250 / 251002.8 7.4 3.9 6.6
2019-Feb-13 22:00S 52°12' W 049°54'7 7.0 250 / 291002.5 8.8 5.2 6.5
2019-Feb-13 21:00S 52°18' W 050°00'4 3.7 250 / 271002.2 7.6 3.0 6.5
2019-Feb-13 20:00S 52°18' W 050°06'4 3.7 240 / 311001.5 7.8 3.6 6.8
2019-Feb-13 19:00S 52°18' W 050°12'7 7.0 230 / 311000.7 6.3 2.9 6.7
2019-Feb-13 18:00S 52°24' W 050°18'4 3.7 230 / 371000.0 6.0 0.8 6.8
2019-Feb-13 17:00S 52°24' W 050°24'7 7.0 220 / 35999.6 5.9 1.6 6.9
2019-Feb-13 16:00S 52°30' W 050°30'4 3.7 220 / 37999.1 5.5 1.5 6.8
2019-Feb-13 15:00S 52°30' W 050°36'4 3.7 220 / 35998.3 5.6 1.0 6.7
2019-Feb-13 14:00S 52°30' W 050°42'7 7.0 220 / 39997.4 5.1 0.4 6.7
2019-Feb-13 13:00S 52°36' W 050°48'0 0.0 230 / 37996.4 5.3 2.5 6.8
2019-Feb-13 12:00S 52°36' W 050°48'4 3.6 230 / 39996.0 5.6 2.2 6.8
2019-Feb-13 11:00S 52°36' W 050°54'9 9.4 220 / 39995.1 5.3 1.8 7.0
2019-Feb-13 10:00S 52°42' W 051°06'7 7.3 220 / 39994.3 5.0 2.1 5.8
2019-Feb-13 09:00S 52°42' W 051°18'6 6.0 220 / 41993.1 4.9 1.9 4.7
2019-Feb-13 08:00S 52°36' W 051°18'4 3.6 220 / 47991.2 5.7 1.7 5.7
2019-Feb-13 07:00S 52°36' W 051°12'4 3.6 250 / 39989.7 6.9 4.7 6.2
2019-Feb-13 06:00S 52°36' W 051°06'7 7.3 250 / 33989.2 7.7 5.7 7.1
2019-Feb-13 05:00S 52°36' W 050°54'7 7.0 270 / 33989.4 8.2 6.2 7.1
2019-Feb-13 04:00S 52°30' W 050°48'4 3.7 270 / 31989.7 8.0 6.7 7.0
2019-Feb-13 03:00S 52°30' W 050°42'0 0.0 270 / 33990.7 7.8 6.8 6.8
2019-Feb-13 02:00S 52°30' W 050°42'0 0.0 280 / 37991.4 7.6 6.9 6.9
2019-Feb-13 01:00S 52°30' W 050°42'1514.6 280 / 31992.8 7.5 6.2 7.1
2019-Feb-13 00:00S 52°30' W 051°06'1312.5 300 / 33994.6 7.9 6.8 6.8
2019-Feb-12 23:00S 52°24' W 051°24'1111.0 300 / 27996.7 7.5 6.7 7.2
2019-Feb-12 22:00S 52°24' W 051°42'1312.5 300 / 25998.7 7.4 6.5 6.7
2019-Feb-12 21:00S 52°18' W 052°00'1111.0 300 / 251000.0 7.6 6.4 6.8
2019-Feb-12 20:00S 52°18' W 052°18'1312.5 300 / 211001.8 7.8 6.3 6.9
2019-Feb-12 19:00S 52°12' W 052°36'1111.0 290 / 211003.1 8.2 6.4 7.1
2019-Feb-12 18:00S 52°12' W 052°54'1111.0 290 / 231004.6 8.2 6.2 7.2
2019-Feb-12 17:00S 52°12' W 053°12'1615.9 280 / 211005.8 9.0 6.9 8.9
2019-Feb-12 16:00S 52°06' W 053°36'1111.1 270 / 191006.8 8.3 6.7 8.3
2019-Feb-12 15:00S 52°06' W 053°54'1111.1 260 / 191007.6 8.1 6.3 7.7
2019-Feb-12 14:00S 52°06' W 054°12'1111.1 260 / 211008.9 7.9 6.0 6.7
2019-Feb-12 13:00S 52°06' W 054°30'1312.6 260 / 191009.6 7.8 5.9 6.9
2019-Feb-12 12:00S 52°00' W 054°48'1111.1 240 / 211010.5 7.7 6.0 6.9
2019-Feb-12 11:00S 52°00' W 055°06'1514.8 230 / 251011.7 7.5 6.4 8.1
2019-Feb-12 10:00S 52°00' W 055°30'1312.6 240 / 271012.3 7.8 6.0 7.8
2019-Feb-12 09:00S 51°54' W 055°48'1111.1 240 / 251012.6 7.9 6.5 8.0
2019-Feb-12 08:00S 51°54' W 056°06'1312.6 240 / 231012.8 7.8 6.2 8.2
2019-Feb-12 07:00S 51°48' W 056°24'1111.1 240 / 211013.3 7.9 6.0 8.0
2019-Feb-12 06:00S 51°48' W 056°42'1312.7 220 / 231013.6 8.0 5.8 8.0
2019-Feb-12 05:00S 51°42' W 057°00'1111.2 220 / 251013.8 8.1 5.8 8.2
2019-Feb-12 04:00S 51°42' W 057°18'1111.2 220 / 291013.9 8.3 5.9 8.9
2019-Feb-12 03:00S 51°42' W 057°36'7 7.4 210 / 331014.1 8.1 6.110.4
2019-Feb-12 02:00S 51°42' W 057°48'7 7.4 220 / 251014.2 8.3 5.311.0
2019-Feb-12 01:00S 51°42' W 057°36'10 9.5 210 / 311013.3 8.2 4.910.0
2019-Feb-12 00:00S 51°48' W 057°24'1312.6 220 / 351012.7 7.8 4.2 8.8
2019-Feb-11 23:00S 51°54' W 057°06'1312.6 220 / 331011.4 7.8 4.1 8.5
2019-Feb-11 22:00S 52°00' W 056°48'10 9.5 220 / 311011.0 6.9 2.6 7.9
2019-Feb-11 21:00S 52°06' W 056°36'1616.3 220 / 331010.0 6.9 1.9 8.2
2019-Feb-11 20:00S 52°18' W 056°18'9 9.5 210 / 311009.5 6.7 0.5 7.7
2019-Feb-11 19:00S 52°24' W 056°06'1312.5 220 / 331008.7 6.7 1.0 7.7
2019-Feb-11 18:00S 52°30' W 055°48'9 9.4 220 / 231008.4 5.7 1.7 7.8
2019-Feb-11 17:00S 52°36' W 055°36'1212.5 210 / 331007.7 4.4 1.0 8.0
2019-Feb-11 16:00S 52°42' W 055°18'7 7.0 210 / 271007.5 5.1-0.4 7.2
2019-Feb-11 15:00S 52°48' W 055°12'1110.9 210 / 311006.4 4.5 1.7 7.9
2019-Feb-11 14:00S 52°48' W 055°30'1615.7 200 / 231006.4 4.9 0.2 6.8
2019-Feb-11 13:00S 52°54' W 055°54'1110.9 200 / 291006.0 5.9-1.3 7.6
2019-Feb-11 12:00S 52°54' W 056°12'1110.9 200 / 291006.0 5.8-2.2 8.4
2019-Feb-11 11:00S 52°54' W 056°30'1110.9 200 / 311006.4 5.9 1.0 8.2
2019-Feb-11 10:00S 52°54' W 056°48'1615.7 190 / 351006.0 4.1 1.9 7.8
2019-Feb-11 09:00S 53°00' W 057°12'1110.8 200 / 291005.3 5.8-0.0 8.2
2019-Feb-11 08:00S 53°00' W 057°30'1110.8 200 / 311004.7 5.6-0.2 8.3
2019-Feb-11 07:00S 53°00' W 057°48'1414.4 210 / 311004.7 4.8 1.6 9.1
2019-Feb-11 06:00S 53°00' W 058°12'1212.4 200 / 291004.3 5.5 1.4 8.4
2019-Feb-11 05:00S 53°06' W 058°30'1414.4 200 / 311004.2 5.5 1.2 8.0
2019-Feb-11 04:00S 53°06' W 058°54'1110.8 210 / 311003.4 5.2 1.8 8.3
2019-Feb-11 03:00S 53°06' W 059°12'1110.8 200 / 291003.2 3.4 1.4 8.4
2019-Feb-11 02:00S 53°06' W 059°30'1110.8 210 / 251002.6 5.6 1.1 8.8
2019-Feb-11 01:00S 53°06' W 059°48'1414.4 200 / 251001.9 5.2-0.1 9.1
2019-Feb-11 00:00S 53°06' W 060°12'1212.4 200 / 271001.5 5.9 0.3 8.9
2019-Feb-10 23:00S 53°00' W 060°30'1110.8 200 / 251001.1 6.0 0.6 8.9
2019-Feb-10 22:00S 53°00' W 060°48'1414.4 200 / 251000.3 5.6 0.5 8.6
2019-Feb-10 21:00S 53°00' W 061°12'1212.4 190 / 27999.9 6.5-0.6 8.6
2019-Feb-10 20:00S 52°54' W 061°30'1110.9 190 / 25999.2 6.3-0.0 8.6
2019-Feb-10 19:00S 52°54' W 061°48'1414.5 180 / 25998.3 6.3 1.9 8.6
2019-Feb-10 18:00S 52°54' W 062°12'1110.9 170 / 25997.6 5.7 1.4 8.7
2019-Feb-10 17:00S 52°54' W 062°30'1110.9 180 / 29996.4 6.0 1.7 8.9
2019-Feb-10 16:00S 52°54' W 062°48'1212.4 180 / 23995.7 6.4 1.3 8.0
2019-Feb-10 15:00S 52°48' W 063°06'1110.9 190 / 27995.3 5.6 2.3 8.4
2019-Feb-10 14:00S 52°48' W 063°24'1110.9 170 / 21994.7 4.6 1.9 8.7
2019-Feb-10 13:00S 52°48' W 063°42'1110.9 180 / 31993.5 4.5 1.9 8.7
2019-Feb-10 12:00S 52°48' W 064°00'1110.9 200 / 33993.0 5.6 1.4 8.7
2019-Feb-10 11:00S 52°48' W 064°18'1212.4 200 / 33992.9 6.1-0.5 8.9
2019-Feb-10 10:00S 52°42' W 064°36'1110.9 190 / 31992.2 7.0 3.3 9.1
2019-Feb-10 09:00S 52°42' W 064°54'1110.9 180 / 33991.1 6.9 4.0 9.5
2019-Feb-10 08:00S 52°42' W 065°12'1514.5 220 / 27989.8 9.0 5.6 9.5
2019-Feb-10 07:00S 52°42' W 065°36'1110.9 230 / 25990.3 8.9 5.3 9.9
2019-Feb-10 06:00S 52°42' W 065°54'1212.5 240 / 27989.1 8.8 5.310.1
2019-Feb-10 05:00S 52°36' W 066°12'1110.9 240 / 27990.3 9.1 5.2 9.9
2019-Feb-10 04:00S 52°36' W 066°30'1110.9 240 / 29989.5 8.9 5.1 9.9
2019-Feb-10 03:00S 52°36' W 066°48'1110.9 240 / 29989.8 8.9 5.2 9.9
2019-Feb-10 02:00S 52°36' W 067°06'1110.9 250 / 31989.8 9.2 4.7 9.8
2019-Feb-10 01:00S 52°36' W 067°24'1212.5 250 / 27989.5 9.4 5.2 9.1
2019-Feb-10 00:00S 52°30' W 067°42'1514.6 250 / 31989.5 10.0 5.1 9.8
2019-Feb-09 23:00S 52°30' W 068°06'1111.0 260 / 33989.4 9.7 4.7 9.3
2019-Feb-09 22:00S 52°30' W 068°24'1615.8 250 / 33990.2 9.6 4.8 9.5
2019-Feb-09 21:00S 52°24' W 068°48'1111.0 250 / 33990.4 10.0 4.6 9.9
2019-Feb-09 20:00S 52°24' W 069°06'1111.0 240 / 31990.7 10.6 4.410.7
2019-Feb-09 19:00S 52°24' W 069°24'9 9.5 250 / 25990.5 9.9 4.510.9
2019-Feb-09 18:00S 52°30' W 069°36'9 9.4 250 / 31990.3 10.2 4.010.8
2019-Feb-09 17:00S 52°36' W 069°48'1212.5 260 / 31990.2 9.7 3.710.6
2019-Feb-09 16:00S 52°42' W 070°06'1110.9 270 / 29990.7 9.0 3.4 9.6
2019-Feb-09 15:00S 52°42' W 070°24'1818.4 270 / 31991.5 8.8 3.3 9.2
2019-Feb-09 14:00S 53°00' W 070°30'1212.4 270 / 31985.6 8.3 4.0 9.0
2019-Feb-09 13:00S 53°06' W 070°48'7 7.0 290 / 19990.7 8.7 2.9 9.0
2019-Feb-09 12:00S 53°12' W 070°54'0 0.0 270 / 23989.7 7.9 2.710.2
2019-Feb-09 11:00S 53°12' W 070°54'0 0.0 270 / 14990.1 7.4 3.110.5
2019-Feb-09 10:00S 53°12' W 070°54'0 0.0 280 / 16989.9 7.0 3.110.4
2019-Feb-09 09:00S 53°12' W 070°54'0 0.0 270 / 19989.5 7.4 3.210.4
2019-Feb-09 08:00S 53°12' W 070°54'0 0.0 260 / 19989.4 7.6 3.210.6
2019-Feb-09 07:00S 53°12' W 070°54'0 0.0 270 / 16989.6 7.7 3.210.4
2019-Feb-09 06:00S 53°12' W 070°54'0 0.0 270 / 12990.2 7.6 3.210.3
2019-Feb-09 05:00S 53°12' W 070°54'0 0.0 300 / 8990.4 7.4 3.610.3
2019-Feb-09 04:00S 53°12' W 070°54'0 0.0 290 / 12990.2 7.8 3.710.3
2019-Feb-09 03:00S 53°12' W 070°54'0 0.0 270 / 16990.1 7.6 3.610.5
2019-Feb-09 02:00S 53°12' W 070°54'0 0.0 270 / 14990.1 8.2 4.010.4
2019-Feb-09 01:00S 53°12' W 070°54'0 0.0 270 / 16989.6 8.6 3.910.4
2019-Feb-09 00:00S 53°12' W 070°54'0 0.0 280 / 21989.1 8.8 4.210.5
2019-Feb-08 23:00S 53°12' W 070°54'0 0.0 280 / 17989.5 9.3 4.710.4
2019-Feb-08 22:00S 53°12' W 070°54'0 0.0 290 / 25988.6 8.7 4.510.3
2019-Feb-08 21:00S 53°12' W 070°54'0 0.0 260 / 14989.6 10.1 5.510.0
2019-Feb-08 20:00S 53°12' W 070°54'0 0.0 300 / 17989.3 11.9 4.1 9.3
2019-Feb-08 19:00S 53°12' W 070°54'1212.0 310 / 21989.4 10.7 4.0 9.2
2019-Feb-08 18:00S 53°24' W 070°54'1212.0 320 / 17990.5 10.0 4.2 9.7
2019-Feb-08 17:00S 53°36' W 070°54'1212.0 320 / 14991.0 10.8 3.3 9.7
2019-Feb-08 16:00S 53°48' W 070°54'9 9.3 160 / 6991.6 9.0 5.5 9.9
2019-Feb-08 15:00S 53°54' W 071°06'1110.6 250 / 8992.3 9.3 4.1 9.1
2019-Feb-08 14:00S 53°54' W 071°24'1212.2 280 / 25993.5 8.2 4.5 8.8
2019-Feb-08 13:00S 53°48' W 071°42'1212.2 280 / 21993.9 8.3 4.9 8.6
2019-Feb-08 12:00S 53°42' W 072°00'1212.2 290 / 17995.1 7.8 5.0 8.6
2019-Feb-08 11:00S 53°36' W 072°18'1212.3 290 / 21995.5 8.3 4.5 8.8
2019-Feb-08 10:00S 53°30' W 072°36'1212.3 270 / 17996.0 8.4 4.5 9.6
2019-Feb-08 09:00S 53°24' W 072°54'1212.3 300 / 17996.8 7.7 5.8 9.4
2019-Feb-08 08:00S 53°18' W 073°12'1616.1 260 / 21997.7 7.4 4.4 9.6
2019-Feb-08 07:00S 53°06' W 073°30'1212.4 310 / 23998.4 9.1 5.6 9.7
2019-Feb-08 06:00S 53°00' W 073°48'1212.0 310 / 21998.9 9.5 5.910.2
2019-Feb-08 05:00S 52°48' W 073°48'1312.5 280 / 29999.4 7.5 5.810.4
2019-Feb-08 04:00S 52°36' W 073°42'1212.0 330 / 16999.4 9.0 6.410.5
2019-Feb-08 03:00S 52°24' W 073°42'1312.5 350 / 19999.9 8.8 6.010.5
2019-Feb-08 02:00S 52°12' W 073°36'1312.6 340 / 271000.4 9.1 7.510.4
2019-Feb-08 01:00S 52°00' W 073°42'1212.0 340 / 161002.1 9.7 5.910.4
2019-Feb-08 00:00S 51°48' W 073°42'1312.7 330 / 271003.9 9.5 6.310.2
2019-Feb-07 23:00S 51°42' W 074°00'1212.0 330 / 231005.2 8.8 6.910.4
2019-Feb-07 22:00S 51°30' W 074°00'1818.4 340 / 271007.1 9.3 6.610.5
2019-Feb-07 21:00S 51°12' W 074°06'2713.3 350 / 271008.1 9.5 6.910.4
2019-Feb-07 19:00S 50°48' W 074°24'1312.9 330 / 251009.9 10.5 6.710.7
2019-Feb-07 18:00S 50°42' W 074°42'1312.6 350 / 211011.5 10.3 8.110.7
2019-Feb-07 17:00S 50°30' W 074°48'1818.0 010 / 171012.1 10.6 8.611.1
2019-Feb-07 16:00S 50°12' W 074°48'7 7.1 350 / 171013.5 9.7 6.911.2
2019-Feb-07 15:00S 50°06' W 074°54'1313.0 350 / 191014.0 11.4 6.811.8
2019-Feb-07 14:00S 50°00' W 075°12'1313.0 330 / 191014.3 10.8 6.511.5
2019-Feb-07 13:00S 49°54' W 075°30'1211.6 320 / 251014.6 11.1 7.012.3
2019-Feb-07 12:00S 49°54' W 075°48'1414.3 330 / 211015.2 10.4 6.111.8
2019-Feb-07 11:00S 49°42' W 076°00'1312.6 320 / 171015.9 10.0 5.910.8
2019-Feb-07 10:00S 49°30' W 076°06'1212.0 310 / 171015.8 10.0 6.010.6
2019-Feb-07 09:00S 49°18' W 076°06'1212.0 300 / 171016.4 10.1 6.011.2
2019-Feb-07 08:00S 49°06' W 076°06'1212.0 280 / 191017.3 10.3 5.212.0
2019-Feb-07 07:00S 48°54' W 076°06'1312.6 280 / 191017.4 10.6 6.112.2
2019-Feb-07 06:00S 48°42' W 076°12'   290 / 171017.8 11.1 7.612.8

Dump ship's entire track history